Time;durP1;ratioP1;P1;durP2;ratioP2;P2;SDS_P1;SDS_P2;PMS_P1;PMS_P2;Temp;Humidity;BMP_temperature;BMP_pressure;BME280_temperature;BME280_humidity;BME280_pressure;Samples;Min_cycle;Max_cycle;Signal;HPM_P1;HPM_P2
2021/10/27 00:01:12;;;;;;;20.30;9.03;;;15.50;99.90;;;;;;5071682;28;20322;-87
2021/10/27 00:03:38;;;;;;;22.47;9.87;;;15.60;99.90;;;;;;5040759;28;20226;-88
2021/10/27 00:06:04;;;;;;;20.40;9.40;;;15.50;99.90;;;;;;5061089;28;20169;-87
2021/10/27 00:08:31;;;;;;;26.77;10.60;;;15.50;99.90;;;;;;5074451;28;20202;-88
2021/10/27 00:10:57;;;;;;;22.70;9.27;;;15.50;99.90;;;;;;5074998;28;20248;-86
2021/10/27 00:13:23;;;;;;;19.83;9.93;;;15.50;99.90;;;;;;5074640;28;20186;-87
2021/10/27 00:15:49;;;;;;;23.07;10.60;;;15.60;99.90;;;;;;5075695;28;20271;-87
2021/10/27 00:18:15;;;;;;;22.23;10.53;;;15.60;99.90;;;;;;5041788;28;20314;-87
2021/10/27 00:20:41;;;;;;;23.13;10.13;;;15.50;99.90;;;;;;5055838;28;20214;-86
2021/10/27 00:23:07;;;;;;;25.90;10.33;;;15.50;99.90;;;;;;5055322;28;20187;-87
2021/10/27 00:25:33;;;;;;;25.40;10.90;;;15.40;99.90;;;;;;5072540;28;20192;-86
2021/10/27 00:27:58;;;;;;;25.73;10.63;;;15.40;99.90;;;;;;5070733;28;20168;-87
2021/10/27 00:30:24;;;;;;;25.77;10.70;;;15.50;99.90;;;;;;5054997;28;20189;-87
2021/10/27 00:32:50;;;;;;;21.93;9.90;;;15.50;99.90;;;;;;5070604;28;20185;-87
2021/10/27 00:35:16;;;;;;;26.63;9.77;;;15.40;99.90;;;;;;5045584;28;20184;-87
2021/10/27 00:37:41;;;;;;;21.43;9.80;;;15.40;99.90;;;;;;5054445;28;20224;-87
2021/10/27 00:40:08;;;;;;;23.30;9.87;;;15.40;99.90;;;;;;5072022;28;20203;-87
2021/10/27 00:42:34;;;;;;;25.40;10.10;;;15.40;99.90;;;;;;5055897;28;20668;-87
2021/10/27 00:45:00;;;;;;;23.43;11.17;;;15.40;99.90;;;;;;5053152;28;20184;-87
2021/10/27 00:47:26;;;;;;;25.87;10.53;;;15.40;99.90;;;;;;5038422;28;20176;-88
2021/10/27 00:49:51;;;;;;;23.00;11.80;;;15.40;99.90;;;;;;5054172;28;20184;-86
2021/10/27 00:52:18;;;;;;;26.67;11.40;;;15.40;99.90;;;;;;5071786;28;20223;-87
2021/10/27 00:54:47;;;;;;;24.37;11.80;;;15.40;99.90;;;;;;5055221;28;20188;-87
2021/10/27 00:57:15;;;;;;;28.93;12.77;;;15.40;99.90;;;;;;5057216;28;20239;-87
2021/10/27 00:59:42;;;;;;;30.10;12.27;;;15.40;99.90;;;;;;5067903;28;20196;-88
2021/10/27 01:02:09;;;;;;;25.70;11.37;;;15.40;99.90;;;;;;5039530;28;20183;-87
2021/10/27 01:04:36;;;;;;;24.97;12.43;;;15.40;99.90;;;;;;5068952;28;20651;-87
2021/10/27 01:07:02;;;;;;;26.83;12.17;;;15.30;99.90;;;;;;5068658;28;20173;-88
2021/10/27 01:09:28;;;;;;;25.80;12.33;;;15.20;99.90;;;;;;5055396;28;20701;-88
2021/10/27 01:11:54;;;;;;;25.37;11.77;;;15.30;99.90;;;;;;5073111;28;20300;-88
2021/10/27 01:14:20;;;;;;;23.67;11.87;;;15.40;99.90;;;;;;5053721;28;20622;-88
2021/10/27 01:16:47;;;;;;;26.70;11.20;;;15.40;99.90;;;;;;5071031;28;20184;-87
2021/10/27 01:19:13;;;;;;;23.17;11.67;;;15.40;99.90;;;;;;5036090;28;20228;-86
2021/10/27 01:21:42;;;;;;;28.47;11.67;;;15.30;99.90;;;;;;5070545;28;20199;-87
2021/10/27 01:24:08;;;;;;;22.77;11.03;;;15.40;99.90;;;;;;5070034;28;20211;-87
2021/10/27 01:26:34;;;;;;;21.83;10.63;;;15.30;99.90;;;;;;5037073;28;20218;-86
2021/10/27 01:29:01;;;;;;;25.37;11.13;;;15.30;99.90;;;;;;5038781;28;20188;-87
2021/10/27 01:31:27;;;;;;;21.50;9.33;;;15.40;99.90;;;;;;5054858;28;20188;-86
2021/10/27 01:33:53;;;;;;;21.87;10.40;;;15.40;99.90;;;;;;5071351;28;20173;-87
2021/10/27 01:36:20;;;;;;;23.20;9.40;;;15.30;99.90;;;;;;5053126;28;20262;-86
2021/10/27 01:38:48;;;;;;;21.43;8.93;;;15.30;99.90;;;;;;5053500;28;20223;-87
2021/10/27 01:41:15;;;;;;;21.60;9.10;;;15.30;99.90;;;;;;5056857;28;20194;-87
2021/10/27 01:43:56;;;;;;;17.27;8.47;;;15.30;99.90;;;;;;5053319;28;20284;-87
2021/10/27 01:46:28;;;;;;;19.97;8.93;;;15.30;99.90;;;;;;5034293;28;20271;-87
2021/10/27 01:48:53;;;;;;;19.17;8.47;;;15.10;99.90;;;;;;5069642;28;20184;-88
2021/10/27 01:51:19;;;;;;;20.27;9.20;;;15.00;99.90;;;;;;5053160;28;20195;-87
2021/10/27 01:53:45;;;;;;;18.67;8.70;;;15.00;99.90;;;;;;5052951;28;20202;-88
2021/10/27 01:56:11;;;;;;;17.77;9.00;;;15.00;99.90;;;;;;5033982;28;20214;-88
2021/10/27 01:58:37;;;;;;;20.40;8.90;;;15.00;99.90;;;;;;5038383;28;20183;-87
2021/10/27 02:01:03;;;;;;;22.00;8.67;;;15.10;99.90;;;;;;5054121;28;20691;-88
2021/10/27 02:03:29;;;;;;;15.93;8.37;;;15.10;99.90;;;;;;5036970;28;20207;-86
2021/10/27 02:05:55;;;;;;;17.23;8.70;;;15.20;99.90;;;;;;5053159;28;20169;-88
2021/10/27 02:08:20;;;;;;;19.93;8.57;;;15.20;99.90;;;;;;5051480;28;20179;-86
2021/10/27 02:10:46;;;;;;;17.60;8.50;;;15.20;99.90;;;;;;5053256;28;20214;-87
2021/10/27 02:13:12;;;;;;;17.93;8.10;;;15.20;99.90;;;;;;5053826;28;20217;-88
2021/10/27 02:15:38;;;;;;;18.90;7.63;;;15.30;99.90;;;;;;5037834;28;20637;-87
2021/10/27 02:18:04;;;;;;;17.77;7.90;;;15.30;99.90;;;;;;5049607;28;20591;-86
2021/10/27 02:20:29;;;;;;;20.10;7.80;;;15.30;99.90;;;;;;5051599;28;20298;-87
2021/10/27 02:22:55;;;;;;;20.53;7.57;;;15.30;99.90;;;;;;5040576;28;20630;-87
2021/10/27 02:25:21;;;;;;;18.93;7.77;;;15.10;99.90;;;;;;5034255;28;20197;-88
2021/10/27 02:27:47;;;;;;;19.73;8.10;;;15.20;99.90;;;;;;5052803;28;20221;-87
2021/10/27 02:30:12;;;;;;;20.40;8.33;;;15.20;99.90;;;;;;5052027;28;20642;-87
2021/10/27 02:32:39;;;;;;;20.23;7.60;;;15.20;99.90;;;;;;5053523;28;20183;-86
2021/10/27 02:35:05;;;;;;;18.37;8.00;;;15.20;99.90;;;;;;5051961;28;20199;-87
2021/10/27 02:37:31;;;;;;;21.30;8.17;;;15.30;99.90;;;;;;5058438;28;20234;-88
2021/10/27 02:39:57;;;;;;;16.97;7.53;;;15.30;99.90;;;;;;5055685;28;20296;-87
2021/10/27 02:42:23;;;;;;;15.93;6.90;;;15.20;99.90;;;;;;5073016;28;20640;-88
2021/10/27 02:44:48;;;;;;;17.63;7.47;;;15.30;99.90;;;;;;5072807;28;20176;-87
2021/10/27 02:47:14;;;;;;;21.57;7.40;;;15.30;99.90;;;;;;5072587;28;20184;-86
2021/10/27 02:49:40;;;;;;;19.03;7.43;;;15.30;99.90;;;;;;5057942;28;20224;-85
2021/10/27 02:52:06;;;;;;;17.37;7.53;;;15.40;99.90;;;;;;5071899;28;20180;-86
2021/10/27 02:54:32;;;;;;;18.43;7.33;;;15.40;99.90;;;;;;5073244;28;20188;-87
2021/10/27 02:56:57;;;;;;;22.33;7.87;;;15.40;99.90;;;;;;5055929;28;20183;-86
2021/10/27 02:59:23;;;;;;;17.43;8.10;;;15.40;99.90;;;;;;5071593;28;20548;-87
2021/10/27 03:01:49;;;;;;;17.70;7.27;;;15.40;99.90;;;;;;5057651;28;20270;-86
2021/10/27 03:04:15;;;;;;;20.03;8.40;;;15.40;99.90;;;;;;5072209;28;20274;-86
2021/10/27 03:06:41;;;;;;;26.07;8.90;;;15.40;99.90;;;;;;5055139;28;20186;-87
2021/10/27 03:09:07;;;;;;;19.50;8.97;;;15.40;99.90;;;;;;5077470;28;20179;-86
2021/10/27 03:11:32;;;;;;;19.00;8.67;;;15.40;99.90;;;;;;5077729;28;20213;-87
2021/10/27 03:13:58;;;;;;;23.40;9.03;;;15.40;99.90;;;;;;5075880;28;20175;-87
2021/10/27 03:16:24;;;;;;;19.90;8.97;;;15.30;99.90;;;;;;5077197;28;20181;-88
2021/10/27 03:18:50;;;;;;;20.20;9.10;;;15.30;99.90;;;;;;5077080;28;20183;-87
2021/10/27 03:21:15;;;;;;;20.53;8.93;;;15.30;99.90;;;;;;5059081;28;20192;-87
2021/10/27 03:23:41;;;;;;;21.13;9.17;;;15.10;99.90;;;;;;5076239;28;20176;-88
2021/10/27 03:26:07;;;;;;;19.30;9.27;;;15.20;99.90;;;;;;5074918;28;20187;-88
2021/10/27 03:28:33;;;;;;;22.50;9.03;;;15.10;99.90;;;;;;5058532;28;20176;-88
2021/10/27 03:30:59;;;;;;;20.93;9.57;;;15.20;99.90;;;;;;5076456;28;20199;-87
2021/10/27 03:33:25;;;;;;;20.40;9.23;;;15.20;99.90;;;;;;5075941;28;20201;-88
2021/10/27 03:35:51;;;;;;;21.77;9.00;;;15.10;99.90;;;;;;5075596;28;20208;-87
2021/10/27 03:38:17;;;;;;;17.90;8.83;;;15.20;99.90;;;;;;5077834;28;20586;-87
2021/10/27 03:40:45;;;;;;;16.90;9.10;;;15.20;99.90;;;;;;5059333;28;20342;-86
2021/10/27 03:43:11;;;;;;;19.17;8.83;;;15.30;99.90;;;;;;5076633;28;20186;-86
2021/10/27 03:45:37;;;;;;;20.80;10.33;;;15.30;99.90;;;;;;5077050;28;20521;-86
2021/10/27 03:48:04;;;;;;;20.93;9.07;;;15.20;99.90;;;;;;5076778;28;20176;-87
2021/10/27 03:50:30;;;;;;;22.90;9.10;;;15.30;99.90;;;;;;5075648;28;20212;-87
2021/10/27 03:52:55;;;;;;;19.90;8.37;;;15.30;99.90;;;;;;5058840;28;20645;-86
2021/10/27 03:55:21;;;;;;;20.03;8.97;;;15.30;99.90;;;;;;5076156;28;20192;-87
2021/10/27 03:57:47;;;;;;;17.73;8.10;;;15.30;99.90;;;;;;5076219;28;20178;-86
2021/10/27 04:00:13;;;;;;;21.03;9.23;;;15.40;99.90;;;;;;5058231;28;20425;-85
2021/10/27 04:02:40;;;;;;;17.03;8.63;;;15.30;99.90;;;;;;5058682;28;20172;-86
2021/10/27 04:05:07;;;;;;;18.03;8.63;;;15.40;99.90;;;;;;5075842;28;20539;-87
2021/10/27 04:07:36;;;;;;;17.07;8.47;;;15.30;99.90;;;;;;5072690;28;20195;-87
2021/10/27 04:10:12;;;;;;;21.40;8.27;;;15.30;99.90;;;;;;5074087;28;20187;-88
2021/10/27 04:12:40;;;;;;;19.00;8.00;;;15.30;99.90;;;;;;5075766;28;20194;-87
2021/10/27 04:15:08;;;;;;;18.33;8.43;;;15.30;99.90;;;;;;5059085;28;20172;-87
2021/10/27 04:17:35;;;;;;;18.67;8.43;;;15.30;99.90;;;;;;5059314;28;20202;-86
2021/10/27 04:20:05;;;;;;;18.90;8.43;;;15.30;99.90;;;;;;5056767;28;20210;-86
2021/10/27 04:22:34;;;;;;;17.37;8.13;;;15.30;99.90;;;;;;5057452;28;20186;-90
2021/10/27 04:25:00;;;;;;;22.53;8.47;;;15.40;99.90;;;;;;5075982;28;20198;-88
2021/10/27 04:27:26;;;;;;;18.40;8.53;;;15.40;99.90;;;;;;5058434;28;20183;-89
2021/10/27 04:29:52;;;;;;;21.27;7.80;;;15.30;99.90;;;;;;5059664;28;20185;-87
2021/10/27 04:32:17;;;;;;;21.27;7.57;;;15.30;99.90;;;;;;5076234;28;20192;-88
2021/10/27 04:34:45;;;;;;;20.57;8.07;;;15.30;99.90;;;;;;5077257;28;20221;-88
2021/10/27 04:37:11;;;;;;;19.97;8.00;;;15.30;99.90;;;;;;5064808;28;20186;-88
2021/10/27 04:39:37;;;;;;;18.83;8.13;;;15.30;99.90;;;;;;5081890;28;20262;-87
2021/10/27 04:42:06;;;;;;;19.93;8.33;;;15.30;99.90;;;;;;5062043;28;20179;-87
2021/10/27 04:44:31;;;;;;;18.23;8.37;;;15.30;99.90;;;;;;5080123;28;20183;-86
2021/10/27 04:47:01;;;;;;;19.00;8.30;;;15.40;99.90;;;;;;5061555;28;20231;-86
2021/10/27 04:49:27;;;;;;;20.20;8.40;;;15.40;99.90;;;;;;5077708;28;20706;-87
2021/10/27 04:51:52;;;;;;;17.53;8.80;;;15.40;99.90;;;;;;5079093;28;20186;-87
2021/10/27 04:54:18;;;;;;;17.77;8.70;;;15.40;99.90;;;;;;5060063;28;20248;-87
2021/10/27 04:56:46;;;;;;;19.50;8.23;;;15.40;99.90;;;;;;5076188;28;20186;-87
2021/10/27 04:59:12;;;;;;;19.00;8.60;;;15.40;99.90;;;;;;5087322;28;20217;-87
2021/10/27 05:01:38;;;;;;;20.90;8.13;;;15.40;99.90;;;;;;5061882;28;20650;-87
2021/10/27 05:04:04;;;;;;;16.53;8.97;;;15.40;99.90;;;;;;5075969;28;20207;-85
2021/10/27 05:06:30;;;;;;;20.20;8.43;;;15.40;99.90;;;;;;5075990;28;20817;-87
2021/10/27 05:08:56;;;;;;;21.80;9.43;;;15.40;99.90;;;;;;5076193;28;20194;-87
2021/10/27 05:11:21;;;;;;;20.03;9.40;;;15.40;99.90;;;;;;5076654;28;20186;-86
2021/10/27 05:13:47;;;;;;;19.60;8.93;;;15.40;99.90;;;;;;5076786;28;20184;-87
2021/10/27 05:16:13;;;;;;;17.53;8.90;;;15.30;99.90;;;;;;5077747;28;20174;-87
2021/10/27 05:18:39;;;;;;;20.20;9.47;;;15.40;99.90;;;;;;5062076;28;20183;-87
2021/10/27 05:21:05;;;;;;;19.23;9.50;;;15.40;99.90;;;;;;5060631;28;20217;-88
2021/10/27 05:23:30;;;;;;;16.40;8.67;;;15.40;99.90;;;;;;5064112;28;20183;-86
2021/10/27 05:25:56;;;;;;;19.80;9.33;;;15.40;99.90;;;;;;5077573;28;20159;-88
2021/10/27 05:28:22;;;;;;;20.30;9.77;;;15.40;99.90;;;;;;5074870;28;20611;-88
2021/10/27 05:30:49;;;;;;;23.27;9.63;;;15.50;99.90;;;;;;5074672;28;20187;-85
2021/10/27 05:33:14;;;;;;;19.57;9.50;;;15.50;99.90;;;;;;5082505;28;20637;-85
2021/10/27 05:35:41;;;;;;;20.27;9.60;;;15.40;99.90;;;;;;5078325;28;20196;-85
2021/10/27 05:38:07;;;;;;;20.20;9.50;;;15.50;99.90;;;;;;5066284;28;20315;-85
2021/10/27 05:40:33;;;;;;;19.83;8.90;;;15.50;99.90;;;;;;5087686;28;20231;-88
2021/10/27 05:43:07;;;;;;;21.70;8.90;;;15.50;99.90;;;;;;5088813;28;20196;-86
2021/10/27 05:45:33;;;;;;;20.03;9.17;;;15.50;99.90;;;;;;5086228;28;20170;-86
2021/10/27 05:48:01;;;;;;;19.13;8.47;;;15.50;99.90;;;;;;5077516;28;20179;-86
2021/10/27 05:50:31;;;;;;;18.23;8.97;;;15.40;99.90;;;;;;5059221;28;20266;-86
2021/10/27 05:55:41;;;;;;;18.17;9.77;;;15.50;99.90;;;;;;5076588;28;20197;-86
2021/10/27 05:58:09;;;;;;;25.90;9.83;;;15.30;99.90;;;;;;5076387;28;20335;-87
2021/10/27 06:00:36;;;;;;;23.53;10.00;;;15.20;99.90;;;;;;5076262;28;20209;-86
2021/10/27 06:03:02;;;;;;;23.17;11.10;;;15.10;99.90;;;;;;5059836;28;20653;-86
2021/10/27 06:05:30;;;;;;;23.80;10.97;;;15.00;99.90;;;;;;5075392;28;20189;-85
2021/10/27 06:07:56;;;;;;;22.67;10.73;;;14.80;99.90;;;;;;5059723;28;20177;-87
2021/10/27 06:10:22;;;;;;;20.30;10.67;;;14.70;99.90;;;;;;5075112;28;20197;-86
2021/10/27 06:13:01;;;;;;;23.27;11.37;;;14.60;99.90;;;;;;5076193;28;20177;-88
2021/10/27 06:15:27;;;;;;;21.97;12.23;;;14.60;99.90;;;;;;5078491;28;20185;-87
2021/10/27 06:17:54;;;;;;;25.43;11.80;;;14.60;99.90;;;;;;5075786;28;20226;-87
2021/10/27 06:20:21;;;;;;;24.43;11.70;;;14.50;99.90;;;;;;5075778;28;20292;-87
2021/10/27 06:22:47;;;;;;;23.80;12.30;;;14.50;99.90;;;;;;5075399;28;20183;-87
2021/10/27 06:25:13;;;;;;;22.87;11.90;;;14.40;99.90;;;;;;5077022;28;20194;-86
2021/10/27 06:27:42;;;;;;;23.47;12.47;;;14.30;99.90;;;;;;5074009;28;20584;-87
2021/10/27 06:30:16;;;;;;;26.70;13.07;;;14.30;99.90;;;;;;5077671;28;20218;-86
2021/10/27 06:33:01;;;;;;;28.40;12.83;;;14.30;99.90;;;;;;5075548;28;20187;-87
2021/10/27 06:35:32;;;;;;;24.13;13.00;;;14.30;99.90;;;;;;5059696;28;20190;-87
2021/10/27 06:38:15;;;;;;;26.03;12.63;;;14.30;99.90;;;;;;5078336;28;20310;-87
2021/10/27 06:48:39;;;;;;;28.60;13.57;;;14.20;99.90;;;;;;5077521;28;20176;-87
2021/10/27 06:51:04;;;;;;;28.33;13.77;;;14.20;99.90;;;;;;5078780;28;20248;-87
2021/10/27 06:53:31;;;;;;;28.00;14.33;;;14.20;99.90;;;;;;5076418;28;20188;-87
2021/10/27 06:55:58;;;;;;;25.40;14.07;;;14.20;99.90;;;;;;5075439;28;20264;-87
2021/10/27 06:58:24;;;;;;;25.80;14.37;;;14.20;99.90;;;;;;5060368;28;20609;-87
2021/10/27 07:00:54;;;;;;;33.93;15.07;;;14.20;99.90;;;;;;5060681;28;20289;-87
2021/10/27 07:06:34;;;;;;;27.87;15.33;;;14.30;99.90;;;;;;5075122;28;20243;-86
2021/10/27 07:17:08;;;;;;;27.30;15.43;;;14.40;99.90;;;;;;5074373;28;20185;-88
2021/10/27 07:19:34;;;;;;;27.17;15.87;;;14.40;99.90;;;;;;5080037;28;20662;-87
2021/10/27 07:21:59;;;;;;;29.57;15.57;;;14.40;99.90;;;;;;5075731;28;20528;-86
2021/10/27 07:24:25;;;;;;;29.77;15.23;;;14.40;99.90;;;;;;5075403;28;20197;-87
2021/10/27 07:26:53;;;;;;;26.07;15.40;;;14.40;99.90;;;;;;5072493;28;20271;-87
2021/10/27 07:29:19;;;;;;;28.50;15.43;;;14.40;99.90;;;;;;5070441;28;20184;-86
2021/10/27 07:31:49;;;;;;;26.67;15.03;;;14.50;99.90;;;;;;5075846;28;20188;-87
2021/10/27 07:34:16;;;;;;;26.60;15.43;;;14.50;99.90;;;;;;5076109;28;20181;-86
2021/10/27 07:41:54;;;;;;;28.10;15.90;;;14.70;99.90;;;;;;5075708;28;20182;-85
2021/10/27 07:44:21;;;;;;;27.47;15.70;;;14.80;99.90;;;;;;5076836;28;20228;-87
2021/10/27 07:46:46;;;;;;;31.13;15.53;;;14.90;99.90;;;;;;5062878;28;20177;-87
2021/10/27 07:49:13;;;;;;;31.23;15.53;;;15.10;99.90;;;;;;5074596;28;20184;-87
2021/10/27 07:51:40;;;;;;;25.03;14.73;;;15.30;99.90;;;;;;5076787;28;20178;-87
2021/10/27 07:54:07;;;;;;;22.53;14.50;;;15.40;99.90;;;;;;5077491;28;20192;-86
2021/10/27 07:56:33;;;;;;;25.57;14.30;;;15.50;99.90;;;;;;5078715;28;20182;-87
2021/10/27 07:59:03;;;;;;;25.03;13.87;;;15.60;99.90;;;;;;5078515;28;20182;-88
2021/10/27 08:01:29;;;;;;;26.13;14.13;;;15.50;99.90;;;;;;5080080;28;20187;-85
2021/10/27 08:03:56;;;;;;;27.80;14.27;;;15.50;99.90;;;;;;5076609;28;20183;-87
2021/10/27 08:06:22;;;;;;;22.43;14.13;;;15.50;99.90;;;;;;5076714;28;20657;-87
2021/10/27 08:08:48;;;;;;;27.33;14.70;;;15.50;99.90;;;;;;5079125;28;20261;-87
2021/10/27 08:11:14;;;;;;;26.67;13.60;;;15.50;99.90;;;;;;5062381;28;20552;-86
2021/10/27 08:13:40;;;;;;;22.73;13.87;;;15.50;99.90;;;;;;5059954;28;20644;-87
2021/10/27 08:16:06;;;;;;;27.80;15.57;;;15.70;99.90;;;;;;5077407;28;20281;-87
2021/10/27 08:18:31;;;;;;;24.27;14.37;;;15.70;99.90;;;;;;5062281;28;20257;-87
2021/10/27 08:20:57;;;;;;;26.93;14.70;;;15.80;99.90;;;;;;5062074;28;20199;-87
2021/10/27 08:23:27;;;;;;;23.33;13.20;;;15.90;99.90;;;;;;5080441;28;20175;-87
2021/10/27 08:25:56;;;;;;;23.17;13.07;;;15.90;99.90;;;;;;5063032;28;20226;-87
2021/10/27 08:28:41;;;;;;;23.33;13.07;;;15.90;99.90;;;;;;5079008;28;20627;-87
2021/10/27 08:33:47;;;;;;;22.40;13.10;;;16.00;99.90;;;;;;5085618;28;20245;-86
2021/10/27 08:36:14;;;;;;;24.60;13.30;;;16.00;99.90;;;;;;5077591;28;20180;-88
2021/10/27 08:38:39;;;;;;;25.13;14.83;;;16.00;99.90;;;;;;5045152;28;20779;-86
2021/10/27 08:41:05;;;;;;;26.23;13.67;;;16.10;99.90;;;;;;5054730;28;20687;-86
2021/10/27 08:43:32;;;;;;;24.53;14.53;;;16.00;99.90;;;;;;5051213;28;20238;-87
2021/10/27 08:46:00;;;;;;;24.53;13.10;;;16.00;99.90;;;;;;5054493;28;20568;-87
2021/10/27 08:48:27;;;;;;;26.57;14.30;;;16.10;99.90;;;;;;5060123;28;20205;-86
2021/10/27 08:50:54;;;;;;;27.10;15.23;;;16.10;99.90;;;;;;5070604;28;20180;-87
2021/10/27 08:53:22;;;;;;;22.77;13.80;;;16.20;99.90;;;;;;5052876;28;20184;-87
2021/10/27 08:55:50;;;;;;;22.70;13.70;;;16.30;99.90;;;;;;5069787;28;20196;-87
2021/10/27 08:58:30;;;;;;;25.93;14.63;;;16.30;99.90;;;;;;5058053;28;20188;-87
2021/10/27 09:03:51;;;;;;;21.73;13.47;;;16.20;99.90;;;;;;5053508;28;20193;-88
2021/10/27 09:40:11;;;;;;;25.13;12.27;;;16.90;99.90;;;;;;5073851;28;20218;-87
2021/10/27 10:06:46;;;;;;;12.27;6.57;;;21.80;99.90;;;;;;5091773;28;20196;-89
2021/10/27 10:09:13;;;;;;;12.90;6.57;;;22.90;99.90;;;;;;5058558;28;20189;-87
2021/10/27 10:11:39;;;;;;;13.63;6.83;;;23.50;99.90;;;;;;5075774;28;20181;-87
2021/10/27 10:14:07;;;;;;;15.57;6.87;;;23.10;99.90;;;;;;5074558;28;20657;-88
2021/10/27 10:16:41;;;;;;;15.83;7.10;;;22.40;99.90;;;;;;5075905;28;20588;-87
2021/10/27 10:19:11;;;;;;;12.60;6.30;;;22.20;99.90;;;;;;5059962;28;20191;-87
2021/10/27 10:21:42;;;;;;;12.40;6.10;;;21.70;99.90;;;;;;5069658;28;20177;-88
2021/10/27 10:24:23;;;;;;;11.30;6.17;;;21.20;99.90;;;;;;5074613;28;20191;-87
2021/10/27 10:26:53;;;;;;;12.80;6.33;;;20.80;99.90;;;;;;5059607;28;20205;-88
2021/10/27 10:29:38;;;;;;;12.47;5.73;;;20.70;99.90;;;;;;5058189;28;20178;-87
2021/10/27 10:32:27;;;;;;;13.93;5.90;;;20.50;99.90;;;;;;5076810;28;20205;-88
2021/10/27 10:35:11;;;;;;;12.53;5.90;;;20.30;99.90;;;;;;5065713;28;20227;-88
2021/10/27 10:43:06;;;;;;;13.33;5.60;;;19.20;99.90;;;;;;5093029;28;20670;-88
2021/10/27 11:22:34;;;;;;;11.20;4.20;;;18.50;99.90;;;;;;5074124;28;20198;-89
2021/10/27 11:25:12;;;;;;;8.30;3.73;;;18.60;99.90;;;;;;5074977;28;20193;-87
2021/10/27 11:39:32;;;;;;;11.67;3.87;;;18.50;99.90;;;;;;5077411;28;20629;-87
2021/10/27 11:44:46;;;;;;;9.47;4.20;;;18.30;99.90;;;;;;5078801;28;20297;-88
2021/10/27 11:47:15;;;;;;;14.80;4.97;;;18.00;99.90;;;;;;5078907;28;20190;-87
2021/10/27 11:49:42;;;;;;;12.70;4.67;;;18.10;99.90;;;;;;5079354;28;20179;-87
2021/10/27 11:52:10;;;;;;;10.87;4.27;;;18.10;99.90;;;;;;5078963;28;20236;-88
2021/10/27 11:54:38;;;;;;;11.27;4.13;;;18.20;99.90;;;;;;5078584;28;20186;-88
2021/10/27 11:57:04;;;;;;;10.90;4.63;;;18.20;99.90;;;;;;5076436;28;20177;-89
2021/10/27 11:59:50;;;;;;;8.33;4.17;;;18.20;99.90;;;;;;5079633;28;20255;-88
2021/10/27 12:02:17;;;;;;;10.27;4.40;;;18.20;99.90;;;;;;5094643;28;20182;-89
2021/10/27 12:04:44;;;;;;;11.10;4.23;;;18.20;99.90;;;;;;5063622;28;20181;-88
2021/10/27 12:07:57;;;;;;;11.13;4.60;;;18.20;99.90;;;;;;5076223;28;20182;-87
2021/10/27 12:18:16;;;;;;;12.00;4.87;;;18.10;99.90;;;;;;5015122;28;20563;-89
2021/10/27 12:20:44;;;;;;;10.90;4.70;;;18.10;99.90;;;;;;5050804;28;20222;-87
2021/10/27 12:23:22;;;;;;;9.10;4.40;;;18.30;99.90;;;;;;5062029;28;20186;-88
2021/10/27 12:25:51;;;;;;;11.23;4.60;;;18.40;99.90;;;;;;5076728;28;20173;-88
2021/10/27 12:28:33;;;;;;;10.70;4.80;;;18.60;99.90;;;;;;5077567;28;20166;-87
2021/10/27 12:31:22;;;;;;;9.13;4.83;;;18.70;99.90;;;;;;5059883;28;20191;-88
2021/10/27 12:33:49;;;;;;;7.93;4.10;;;18.70;99.90;;;;;;5064628;28;20213;-88
2021/10/27 12:36:34;;;;;;;13.20;4.37;;;18.70;99.90;;;;;;5059552;28;20193;-87
2021/10/27 12:39:11;;;;;;;12.83;4.63;;;19.00;99.90;;;;;;5093746;28;20278;-88
2021/10/27 12:41:36;;;;;;;10.40;4.07;;;19.60;99.90;;;;;;5074700;28;20202;-89
2021/10/27 12:44:24;;;;;;;9.27;3.80;;;20.30;99.90;;;;;;5077827;28;20267;-89
2021/10/27 12:47:13;;;;;;;11.70;3.90;;;20.80;99.90;;;;;;5078945;28;20251;-88
2021/10/27 12:49:41;;;;;;;9.30;3.57;;;21.40;99.90;;;;;;5062641;28;20198;-89
2021/10/27 12:52:24;;;;;;;9.93;3.30;;;21.90;99.90;;;;;;5061911;28;20188;-89
2021/10/27 12:55:11;;;;;;;7.17;3.20;;;22.00;99.90;;;;;;5061753;28;20203;-87
2021/10/27 12:57:54;;;;;;;7.43;3.33;;;22.40;99.90;;;;;;5100942;28;20181;-86
2021/10/27 13:00:47;;;;;;;10.07;3.77;;;22.70;99.90;;;;;;5072849;28;20214;-88
2021/10/27 13:03:43;;;;;;;11.10;3.40;;;22.70;99.90;;;;;;5090944;28;20239;-88
2021/10/27 13:30:21;;;;;;;10.20;3.83;;;19.70;99.90;;;;;;5076750;28;20239;-88
2021/10/27 13:32:55;;;;;;;7.27;3.40;;;19.60;99.90;;;;;;5075283;28;20188;-89
2021/10/27 13:35:22;;;;;;;6.93;3.60;;;19.60;99.90;;;;;;5061173;28;20177;-90
2021/10/27 13:37:49;;;;;;;9.13;3.70;;;19.50;99.90;;;;;;5077236;28;20227;-88
2021/10/27 13:40:16;;;;;;;8.67;3.37;;;19.30;99.90;;;;;;5059609;28;20227;-88
2021/10/27 13:42:56;;;;;;;11.10;3.77;;;19.20;99.90;;;;;;5060214;28;20201;-88
2021/10/27 13:45:34;;;;;;;9.80;3.80;;;19.30;99.90;;;;;;5058735;28;20643;-89
2021/10/27 14:06:55;;;;;;;7.57;2.33;;;18.50;99.90;;;;;;5069797;28;20185;-88
2021/10/27 14:09:29;;;;;;;9.47;4.13;;;18.50;99.90;;;;;;5058470;28;20189;-88
2021/10/27 14:47:21;;;;;;;10.60;3.97;;;17.70;99.90;;;;;;5074714;28;20224;-87
2021/10/27 15:20:05;;;;;;;13.27;5.37;;;17.30;99.90;;;;;;5074976;28;20221;-87
2021/10/27 15:51:26;;;;;;;14.00;6.67;;;16.50;99.90;;;;;;5067365;28;20651;-88
2021/10/27 15:53:53;;;;;;;14.70;6.53;;;16.50;99.90;;;;;;5035516;28;20207;-89
2021/10/27 15:56:20;;;;;;;15.37;7.23;;;16.40;99.90;;;;;;5035312;28;20177;-90
2021/10/27 15:58:46;;;;;;;13.43;6.60;;;16.50;99.90;;;;;;5049702;28;20209;-89
2021/10/27 16:01:12;;;;;;;18.17;7.43;;;16.50;99.90;;;;;;5050313;28;20244;-89
2021/10/27 16:03:38;;;;;;;14.93;6.90;;;16.60;99.90;;;;;;5049246;28;20192;-90
2021/10/27 16:06:05;;;;;;;16.20;7.20;;;16.60;99.90;;;;;;5049668;28;20539;-89
2021/10/27 16:08:34;;;;;;;18.37;7.13;;;16.50;99.90;;;;;;5049929;28;20191;-87
2021/10/27 16:11:00;;;;;;;23.10;10.50;;;16.50;99.90;;;;;;5035868;28;20193;-88
2021/10/27 16:13:26;;;;;;;15.63;7.70;;;16.40;99.90;;;;;;5034698;28;20199;-88
2021/10/27 16:18:18;;;;;;;15.30;7.37;;;16.20;99.90;;;;;;5070776;28;20551;-89
2021/10/27 16:20:45;;;;;;;15.63;7.00;;;16.10;99.90;;;;;;5054395;28;20257;-89
2021/10/27 16:23:12;;;;;;;13.03;6.77;;;16.00;99.90;;;;;;5050309;28;20197;-88
2021/10/27 16:25:39;;;;;;;20.00;8.47;;;16.00;99.90;;;;;;5037797;28;20204;-88
2021/10/27 16:28:05;;;;;;;22.57;8.83;;;16.00;99.90;;;;;;5052720;28;20223;-89
2021/10/27 16:30:32;;;;;;;18.63;9.27;;;15.90;99.90;;;;;;5070008;28;20195;-88
2021/10/27 16:32:58;;;;;;;18.40;7.73;;;15.90;99.90;;;;;;5053461;28;20189;-89
2021/10/27 16:35:24;;;;;;;15.00;7.97;;;15.90;99.90;;;;;;5053297;28;20173;-89
2021/10/27 16:37:50;;;;;;;17.27;10.37;;;15.90;99.90;;;;;;5056145;28;20248;-89
2021/10/27 16:40:16;;;;;;;16.90;7.63;;;15.80;99.90;;;;;;5052636;28;20214;-89
2021/10/27 16:42:42;;;;;;;17.00;8.20;;;15.80;99.90;;;;;;5053943;28;20185;-88
2021/10/27 16:45:10;;;;;;;16.60;7.93;;;15.70;99.90;;;;;;5052359;28;20560;-89
2021/10/27 16:47:36;;;;;;;15.97;7.67;;;15.70;99.90;;;;;;5048934;28;20256;-89
2021/10/27 16:50:05;;;;;;;16.27;8.33;;;15.80;99.90;;;;;;5053363;28;20192;-89
2021/10/27 16:52:31;;;;;;;18.50;8.33;;;15.70;99.90;;;;;;5052143;28;20211;-87
2021/10/27 16:54:57;;;;;;;19.47;9.77;;;15.70;99.90;;;;;;5051434;28;20189;-87
2021/10/27 16:57:24;;;;;;;21.60;12.33;;;15.60;99.90;;;;;;5052499;28;20189;-87
2021/10/27 16:59:50;;;;;;;21.60;14.03;;;15.50;99.90;;;;;;5037574;28;20195;-87
2021/10/27 17:02:16;;;;;;;25.40;15.03;;;15.50;99.90;;;;;;5052567;28;20278;-87
2021/10/27 17:04:42;;;;;;;20.47;8.47;;;15.50;99.90;;;;;;5050210;28;20192;-86
2021/10/27 17:07:08;;;;;;;16.50;8.60;;;15.50;99.90;;;;;;5054153;28;20169;-87
2021/10/27 17:09:37;;;;;;;19.13;10.50;;;15.50;99.90;;;;;;5052818;28;20843;-87
2021/10/27 17:12:04;;;;;;;16.10;10.85;;;15.30;99.90;;;;;;5030541;28;20424;-88
2021/10/27 17:14:32;;;;;;;22.07;11.43;;;15.20;99.90;;;;;;5053568;28;20185;-87
2021/10/27 17:16:58;;;;;;;18.33;9.20;;;15.30;99.90;;;;;;5037411;28;20168;-87
2021/10/27 17:19:24;;;;;;;16.47;9.63;;;15.40;99.90;;;;;;5052294;28;20278;-87
2021/10/27 17:21:50;;;;;;;16.40;10.27;;;15.50;99.90;;;;;;5053769;28;20635;-86
2021/10/27 17:24:22;;;;;;;16.83;9.13;;;15.40;99.90;;;;;;5052076;28;20192;-89
2021/10/27 17:26:57;;;;;;;23.37;12.10;;;15.30;99.90;;;;;;5055695;28;20172;-86
2021/10/27 17:29:24;;;;;;;23.10;11.33;;;15.30;99.90;;;;;;5052429;28;20235;-87
2021/10/27 17:31:51;;;;;;;18.17;9.90;;;15.20;99.90;;;;;;5049369;28;20177;-86
2021/10/27 17:34:16;;;;;;;20.20;9.43;;;15.20;99.90;;;;;;5053585;28;20606;-86